Time;durP1;ratioP1;P1;durP2;ratioP2;P2;SDS_P1;SDS_P2;PMS_P1;PMS_P2;Temp;Humidity;BMP_temperature;BMP_pressure;BME280_temperature;BME280_humidity;BME280_pressure;Samples;Min_cycle;Max_cycle;Signal;HPM_P1;HPM_P2
2023/08/09 00:01:12;;;;;;;2.83;1.00;;;21.10;88.60;;;;;;5067441;28;20225;-80
2023/08/09 00:03:40;;;;;;;2.90;1.37;;;21.10;88.70;;;;;;5053548;28;20201;-80
2023/08/09 00:06:07;;;;;;;4.97;1.27;;;21.10;88.80;;;;;;5072626;28;20213;-80
2023/08/09 00:08:34;;;;;;;3.57;1.47;;;21.00;89.10;;;;;;5081558;28;20282;-80
2023/08/09 00:11:01;;;;;;;6.60;1.30;;;21.00;89.30;;;;;;5054227;28;20227;-80
2023/08/09 00:13:28;;;;;;;3.20;1.10;;;21.00;89.40;;;;;;5072735;28;20699;-80
2023/08/09 00:15:58;;;;;;;3.27;1.20;;;21.10;89.60;;;;;;5075407;28;20291;-80
2023/08/09 00:18:26;;;;;;;5.37;1.50;;;21.10;89.70;;;;;;5053299;28;20629;-80
2023/08/09 00:20:56;;;;;;;1.13;0.93;;;21.10;90.00;;;;;;5074701;28;20226;-80
2023/08/09 00:23:24;;;;;;;3.93;1.70;;;21.00;90.00;;;;;;5057191;28;20263;-80
2023/08/09 00:25:51;;;;;;;2.77;1.30;;;21.00;90.00;;;;;;5071181;28;20201;-79
2023/08/09 00:28:19;;;;;;;3.50;1.30;;;21.00;90.00;;;;;;5068078;28;20232;-80
2023/08/09 00:30:49;;;;;;;4.63;1.87;;;20.90;90.10;;;;;;5070350;28;20279;-79
2023/08/09 00:33:16;;;;;;;6.77;1.37;;;21.00;90.20;;;;;;5073918;28;20206;-80
2023/08/09 00:35:44;;;;;;;4.57;1.37;;;21.00;90.30;;;;;;5050012;28;20209;-79
2023/08/09 00:38:18;;;;;;;4.97;1.47;;;20.90;90.40;;;;;;5073008;28;20228;-80
2023/08/09 00:40:45;;;;;;;5.13;1.50;;;20.90;90.40;;;;;;5056774;28;20661;-79
2023/08/09 00:43:13;;;;;;;2.73;1.33;;;20.90;90.40;;;;;;5071167;28;20193;-80
2023/08/09 00:45:44;;;;;;;7.87;1.70;;;20.90;90.50;;;;;;5055586;28;20263;-80
2023/08/09 00:48:15;;;;;;;3.03;1.20;;;20.90;90.60;;;;;;5078521;28;20198;-80
2023/08/09 00:50:47;;;;;;;4.57;1.00;;;20.90;90.70;;;;;;5051480;28;20305;-80
2023/08/09 00:53:15;;;;;;;5.93;1.70;;;21.00;90.70;;;;;;5078235;28;20214;-80
2023/08/09 00:55:42;;;;;;;4.63;1.50;;;21.00;90.80;;;;;;5074306;28;20220;-80
2023/08/09 00:58:09;;;;;;;3.63;1.30;;;21.00;90.90;;;;;;5069556;28;20255;-80
2023/08/09 01:00:40;;;;;;;4.47;1.60;;;21.00;90.90;;;;;;5051218;28;20407;-80
2023/08/09 01:03:07;;;;;;;7.23;1.40;;;21.00;91.00;;;;;;5073916;28;20583;-80
2023/08/09 01:06:02;;;;;;;6.90;1.13;;;21.00;91.10;;;;;;5072534;28;20201;-80
2023/08/09 01:08:41;;;;;;;3.67;1.33;;;21.00;91.30;;;;;;5063456;28;20202;-80
2023/08/09 01:11:39;;;;;;;5.40;1.37;;;20.90;91.30;;;;;;5066859;28;20549;-80
2023/08/09 01:14:08;;;;;;;1.73;1.30;;;20.90;91.40;;;;;;5078069;28;20218;-80
2023/08/09 01:16:37;;;;;;;6.20;1.60;;;20.90;91.30;;;;;;5053591;28;20225;-80
2023/08/09 01:19:11;;;;;;;4.43;1.23;;;20.90;91.20;;;;;;5050991;28;20846;-80
2023/08/09 01:21:45;;;;;;;3.90;1.43;;;20.90;91.20;;;;;;5051809;28;20212;-80
2023/08/09 01:24:13;;;;;;;5.43;1.53;;;20.90;91.30;;;;;;5048464;28;20206;-80
2023/08/09 01:26:45;;;;;;;3.10;1.03;;;20.90;91.30;;;;;;5074560;28;20566;-80
2023/08/09 01:29:13;;;;;;;6.57;1.70;;;20.90;91.40;;;;;;5068538;28;20224;-80
2023/08/09 01:31:40;;;;;;;4.53;1.57;;;20.80;91.40;;;;;;5058198;28;20210;-80
2023/08/09 01:34:11;;;;;;;5.10;1.30;;;20.80;91.50;;;;;;5061092;28;20217;-80
2023/08/09 01:36:41;;;;;;;2.80;1.43;;;20.80;91.50;;;;;;5068281;28;20209;-80
2023/08/09 01:39:16;;;;;;;4.07;1.40;;;20.80;91.60;;;;;;5063417;28;20280;-80
2023/08/09 01:41:46;;;;;;;10.67;1.37;;;20.80;91.70;;;;;;5066657;28;20217;-80
2023/08/09 01:44:17;;;;;;;8.60;1.50;;;20.80;91.70;;;;;;5049708;28;20201;-80
2023/08/09 01:46:48;;;;;;;4.47;1.13;;;20.80;91.60;;;;;;5070547;28;20720;-80
2023/08/09 01:49:21;;;;;;;6.60;1.60;;;20.70;91.70;;;;;;5068480;28;20197;-80
2023/08/09 01:51:49;;;;;;;4.67;1.57;;;20.70;91.70;;;;;;5068925;28;20230;-80
2023/08/09 02:04:34;;;;;;;6.60;1.73;;;20.70;91.90;;;;;;5061401;28;20609;-59
2023/08/09 02:07:01;;;;;;;7.50;1.37;;;20.60;91.80;;;;;;5059916;28;20255;-59
2023/08/09 02:09:28;;;;;;;4.60;1.50;;;20.70;91.90;;;;;;5058533;28;20215;-59
2023/08/09 02:11:57;;;;;;;5.37;1.97;;;20.60;91.90;;;;;;5059646;28;20280;-60
2023/08/09 02:14:24;;;;;;;5.33;1.50;;;20.60;91.90;;;;;;5059088;28;20210;-59
2023/08/09 02:16:51;;;;;;;2.00;1.30;;;20.60;91.90;;;;;;5056323;28;20198;-59
2023/08/09 02:19:19;;;;;;;4.80;1.27;;;20.60;92.00;;;;;;5058599;28;20194;-59
2023/08/09 02:21:46;;;;;;;3.60;1.30;;;20.60;92.10;;;;;;5060704;28;20217;-59
2023/08/09 02:24:14;;;;;;;2.47;1.37;;;20.60;92.10;;;;;;5056545;28;20297;-59
2023/08/09 02:26:42;;;;;;;8.20;1.80;;;20.50;92.10;;;;;;5058550;28;20234;-59
2023/08/09 02:29:09;;;;;;;3.30;1.67;;;20.50;92.10;;;;;;5060857;28;20322;-59
2023/08/09 02:31:37;;;;;;;4.20;1.20;;;20.50;92.20;;;;;;5053981;28;20500;-60
2023/08/09 02:34:04;;;;;;;5.07;1.47;;;20.50;92.30;;;;;;5059381;28;20217;-59
2023/08/09 02:36:31;;;;;;;4.30;1.73;;;20.40;92.30;;;;;;5057851;28;20682;-59
2023/08/09 02:38:58;;;;;;;2.27;1.40;;;20.40;92.40;;;;;;5056109;28;20630;-59
2023/08/09 02:41:25;;;;;;;1.60;1.50;;;20.40;92.50;;;;;;5054705;28;20202;-59
2023/08/09 02:43:52;;;;;;;4.10;1.53;;;20.30;92.50;;;;;;5060250;28;20250;-59
2023/08/09 02:46:19;;;;;;;2.83;1.40;;;20.30;92.60;;;;;;5058462;28;20190;-59
2023/08/09 02:48:46;;;;;;;3.73;1.67;;;20.30;92.70;;;;;;5058069;28;20635;-59
2023/08/09 02:51:13;;;;;;;6.47;1.60;;;20.20;92.70;;;;;;5054789;28;20195;-60
2023/08/09 02:54:01;;;;;;;8.67;1.60;;;20.20;92.80;;;;;;5060868;28;20205;-60
2023/08/09 02:56:29;;;;;;;2.53;1.57;;;20.20;92.90;;;;;;5053661;28;20569;-60
2023/08/09 02:58:56;;;;;;;4.40;1.83;;;20.20;92.70;;;;;;5054839;28;20293;-60
2023/08/09 03:01:24;;;;;;;4.63;1.97;;;20.20;92.40;;;;;;5062015;28;20239;-60
2023/08/09 03:03:54;;;;;;;6.73;2.17;;;20.10;92.20;;;;;;5058332;28;21203;-59
2023/08/09 03:06:22;;;;;;;3.33;1.80;;;20.00;92.30;;;;;;5061173;28;20672;-60
2023/08/09 03:08:50;;;;;;;5.50;2.10;;;20.00;92.60;;;;;;5057692;28;20651;-59
2023/08/09 03:11:21;;;;;;;9.47;2.37;;;19.90;92.80;;;;;;5065800;28;20205;-60
2023/08/09 03:13:48;;;;;;;2.30;1.70;;;20.00;93.00;;;;;;5062853;28;20220;-60
2023/08/09 03:16:16;;;;;;;5.67;2.20;;;20.00;93.10;;;;;;5052223;28;20343;-60
2023/08/09 03:18:43;;;;;;;6.80;2.43;;;20.00;93.20;;;;;;5041523;28;20199;-60
2023/08/09 03:21:10;;;;;;;3.47;2.27;;;20.00;93.30;;;;;;5045647;28;20217;-61
2023/08/09 03:23:37;;;;;;;6.13;2.37;;;20.00;93.40;;;;;;5046630;28;20230;-60
2023/08/09 03:26:05;;;;;;;4.10;1.80;;;19.90;93.50;;;;;;5048955;28;20210;-60
2023/08/09 03:28:33;;;;;;;4.83;2.47;;;20.00;93.70;;;;;;5049587;28;20536;-60
2023/08/09 03:31:03;;;;;;;4.27;1.90;;;20.00;93.70;;;;;;5045733;28;20646;-60
2023/08/09 03:33:35;;;;;;;6.07;2.33;;;20.00;93.70;;;;;;5047262;28;20211;-60
2023/08/09 03:36:04;;;;;;;7.00;2.40;;;20.00;93.80;;;;;;5047990;28;20211;-60
2023/08/09 03:38:31;;;;;;;3.03;2.20;;;20.00;93.80;;;;;;5050035;28;20212;-60
2023/08/09 03:40:58;;;;;;;6.53;2.80;;;19.90;93.90;;;;;;5045015;28;20207;-60
2023/08/09 03:43:26;;;;;;;9.43;2.37;;;20.00;94.00;;;;;;5047253;28;20225;-59
2023/08/09 03:45:53;;;;;;;8.07;2.63;;;20.00;94.10;;;;;;5043788;28;20195;-59
2023/08/09 03:48:21;;;;;;;6.13;2.37;;;20.00;94.10;;;;;;5079439;28;20318;-59
2023/08/09 03:50:48;;;;;;;8.27;3.30;;;20.00;94.20;;;;;;5049496;28;20201;-60
2023/08/09 03:53:15;;;;;;;5.33;2.20;;;20.00;94.30;;;;;;5077583;28;20229;-59
2023/08/09 03:55:43;;;;;;;7.20;2.80;;;19.90;94.30;;;;;;5046618;28;20209;-59
2023/08/09 03:58:11;;;;;;;4.33;2.20;;;20.00;94.50;;;;;;5047456;28;20543;-61
2023/08/09 04:00:38;;;;;;;5.53;2.40;;;20.00;94.60;;;;;;5039913;28;20201;-60
2023/08/09 04:03:06;;;;;;;5.03;2.73;;;19.90;94.60;;;;;;5042820;28;20250;-60
2023/08/09 04:05:34;;;;;;;7.77;2.13;;;19.90;94.60;;;;;;5048249;28;20194;-59
2023/08/09 04:08:03;;;;;;;5.67;2.17;;;19.90;94.60;;;;;;5042439;28;20214;-60
2023/08/09 04:10:30;;;;;;;6.20;2.17;;;20.00;94.70;;;;;;5046068;28;20212;-59
2023/08/09 04:12:58;;;;;;;2.43;1.57;;;20.00;94.80;;;;;;5041959;28;20206;-59
2023/08/09 04:15:27;;;;;;;3.33;2.03;;;20.00;94.80;;;;;;5036976;28;20531;-59
2023/08/09 04:17:54;;;;;;;5.93;2.00;;;20.00;94.90;;;;;;5041021;28;20710;-60
2023/08/09 04:20:22;;;;;;;4.03;1.83;;;20.00;94.90;;;;;;5047690;28;20252;-60
2023/08/09 04:22:49;;;;;;;5.30;2.40;;;20.00;94.80;;;;;;5036185;28;20226;-60
2023/08/09 04:25:17;;;;;;;5.37;1.97;;;20.00;94.80;;;;;;5037012;28;20256;-60
2023/08/09 04:27:45;;;;;;;4.73;2.20;;;20.00;94.70;;;;;;5038975;28;20202;-59
2023/08/09 04:30:12;;;;;;;6.30;1.93;;;20.00;94.70;;;;;;5039133;28;20230;-60
2023/08/09 04:32:39;;;;;;;6.67;2.00;;;20.00;94.70;;;;;;5037816;28;20569;-59
2023/08/09 04:35:09;;;;;;;5.30;2.10;;;20.00;94.70;;;;;;5040400;28;20203;-60
2023/08/09 04:37:36;;;;;;;10.20;2.20;;;20.00;94.60;;;;;;5039787;28;20207;-60
2023/08/09 04:40:09;;;;;;;2.50;2.13;;;20.00;94.60;;;;;;5043858;28;20245;-60
2023/08/09 04:42:39;;;;;;;1.93;1.73;;;19.90;94.70;;;;;;5038709;28;20214;-59
2023/08/09 04:45:11;;;;;;;8.87;2.20;;;19.90;94.70;;;;;;5043688;28;20214;-60
2023/08/09 04:47:38;;;;;;;4.23;2.70;;;19.90;94.80;;;;;;5038697;28;20195;-60
2023/08/09 04:50:07;;;;;;;19.93;2.93;;;19.90;94.80;;;;;;5041975;28;20198;-60
2023/08/09 04:52:35;;;;;;;8.50;2.80;;;19.90;95.10;;;;;;5042966;28;20210;-59
2023/08/09 04:55:06;;;;;;;4.10;1.97;;;19.90;94.80;;;;;;5041000;28;20281;-59
2023/08/09 04:57:33;;;;;;;3.53;2.60;;;19.90;94.70;;;;;;5042101;28;20229;-60
2023/08/09 05:00:08;;;;;;;7.47;2.50;;;20.00;94.70;;;;;;5042966;28;20205;-60
2023/08/09 05:02:36;;;;;;;3.77;2.03;;;20.00;94.70;;;;;;5042087;28;20268;-59
2023/08/09 05:05:07;;;;;;;5.90;2.20;;;20.00;94.80;;;;;;5042266;28;20211;-60
2023/08/09 05:07:35;;;;;;;4.40;2.97;;;20.00;94.80;;;;;;5042392;28;20222;-60
2023/08/09 05:10:04;;;;;;;6.47;2.37;;;20.10;94.90;;;;;;5042817;28;20203;-59
2023/08/09 05:12:31;;;;;;;7.87;2.77;;;20.10;94.90;;;;;;5042635;28;20194;-59
2023/08/09 05:14:58;;;;;;;6.33;3.03;;;20.10;95.00;;;;;;5042816;28;20298;-59
2023/08/09 05:17:25;;;;;;;8.60;3.57;;;20.20;95.10;;;;;;5042902;28;20206;-60
2023/08/09 05:19:53;;;;;;;8.93;3.73;;;20.20;95.20;;;;;;5040771;28;20238;-60
2023/08/09 05:22:20;;;;;;;7.77;2.83;;;20.30;95.20;;;;;;5040876;28;20202;-60
2023/08/09 05:24:47;;;;;;;7.23;3.17;;;20.50;95.20;;;;;;5039039;28;20218;-60
2023/08/09 05:27:14;;;;;;;5.60;3.60;;;20.50;95.10;;;;;;5045212;28;20344;-59
2023/08/09 05:29:41;;;;;;;12.13;4.03;;;20.60;95.00;;;;;;5038053;28;20257;-60
2023/08/09 05:32:08;;;;;;;6.80;3.70;;;20.70;94.80;;;;;;5038323;28;20198;-59
2023/08/09 05:34:35;;;;;;;13.93;4.53;;;20.80;94.50;;;;;;5036681;28;20203;-60
2023/08/09 05:37:03;;;;;;;9.60;5.23;;;20.90;94.30;;;;;;5039229;28;20228;-59
2023/08/09 05:39:31;;;;;;;16.40;8.00;;;21.00;94.10;;;;;;5043641;28;20202;-60
2023/08/09 05:41:58;;;;;;;12.13;6.57;;;21.10;94.10;;;;;;5042122;28;20214;-59
2023/08/09 05:44:26;;;;;;;7.20;4.53;;;21.20;94.00;;;;;;5041952;28;20222;-60
2023/08/09 05:46:53;;;;;;;7.87;4.03;;;21.20;93.80;;;;;;5040910;28;20205;-60
2023/08/09 05:49:20;;;;;;;4.83;4.20;;;21.30;93.70;;;;;;5041007;28;20203;-59
2023/08/09 05:51:47;;;;;;;7.10;4.07;;;21.40;93.60;;;;;;5037772;28;20191;-59
2023/08/09 05:54:14;;;;;;;7.10;4.53;;;21.50;93.70;;;;;;5038748;28;20211;-60
2023/08/09 05:56:42;;;;;;;7.27;4.50;;;21.50;93.80;;;;;;5041388;28;20198;-60
2023/08/09 05:59:10;;;;;;;13.43;4.87;;;21.70;93.80;;;;;;5039037;28;20209;-60
2023/08/09 06:01:37;;;;;;;6.77;4.60;;;21.80;93.60;;;;;;5037067;28;20633;-60
2023/08/09 06:04:05;;;;;;;13.83;4.30;;;21.90;93.50;;;;;;5042104;28;20249;-60
2023/08/09 06:06:32;;;;;;;6.80;4.63;;;22.00;93.40;;;;;;5040306;28;20203;-60
2023/08/09 06:08:59;;;;;;;9.80;4.63;;;22.10;93.40;;;;;;5039350;28;20222;-60
2023/08/09 06:11:44;;;;;;;8.17;5.63;;;22.10;93.40;;;;;;5045596;28;20619;-60
2023/08/09 06:14:11;;;;;;;8.23;4.67;;;22.20;93.50;;;;;;5039398;28;20509;-59
2023/08/09 06:16:38;;;;;;;7.33;4.23;;;22.30;93.70;;;;;;5042006;28;20273;-62
2023/08/09 06:19:05;;;;;;;6.10;4.50;;;22.40;93.60;;;;;;5042424;28;20214;-59
2023/08/09 06:21:32;;;;;;;10.63;4.03;;;22.40;93.40;;;;;;5039972;28;20230;-59
2023/08/09 06:23:59;;;;;;;8.73;4.73;;;22.50;93.60;;;;;;5040674;28;20218;-59
2023/08/09 06:26:26;;;;;;;7.40;4.10;;;22.60;93.50;;;;;;5039821;28;20203;-59
2023/08/09 06:28:53;;;;;;;6.17;3.10;;;22.60;93.20;;;;;;5042379;28;20265;-59
2023/08/09 06:31:21;;;;;;;8.03;3.47;;;22.70;93.50;;;;;;5040044;28;20210;-59
2023/08/09 06:33:49;;;;;;;5.43;3.97;;;22.90;93.10;;;;;;5041595;28;20211;-59
2023/08/09 06:36:16;;;;;;;6.27;3.37;;;23.00;92.80;;;;;;5040930;28;20207;-59
2023/08/09 06:38:43;;;;;;;7.83;3.20;;;23.10;92.90;;;;;;5044503;28;20227;-60
2023/08/09 06:41:10;;;;;;;5.63;3.30;;;23.20;92.70;;;;;;5036910;28;20206;-60
2023/08/09 06:43:37;;;;;;;7.43;3.97;;;23.40;92.30;;;;;;5042527;28;20227;-60
2023/08/09 06:46:04;;;;;;;7.80;3.83;;;23.50;92.00;;;;;;5040385;28;20206;-58
2023/08/09 06:48:32;;;;;;;6.13;3.10;;;23.50;92.00;;;;;;5040864;28;20202;-59
2023/08/09 06:51:00;;;;;;;6.37;3.20;;;23.70;91.80;;;;;;5043561;28;20199;-59
2023/08/09 06:53:27;;;;;;;8.93;2.80;;;23.80;91.60;;;;;;5045527;28;20234;-58
2023/08/09 06:55:54;;;;;;;5.77;2.90;;;23.90;91.00;;;;;;5041994;28;20194;-58
2023/08/09 06:58:21;;;;;;;4.47;2.80;;;23.90;90.90;;;;;;5042939;28;20200;-59
2023/08/09 07:00:48;;;;;;;6.93;3.17;;;24.00;90.80;;;;;;5046485;28;20228;-59
2023/08/09 07:03:15;;;;;;;6.20;3.10;;;24.00;90.70;;;;;;5044795;28;20315;-60
2023/08/09 07:05:43;;;;;;;8.57;3.50;;;24.00;90.80;;;;;;5041707;28;20229;-60
2023/08/09 07:08:11;;;;;;;5.13;3.00;;;24.10;90.80;;;;;;5042142;28;20556;-60
2023/08/09 07:10:38;;;;;;;4.83;3.03;;;24.10;90.70;;;;;;5042213;28;20601;-60
2023/08/09 07:13:05;;;;;;;7.10;2.90;;;24.30;90.60;;;;;;5044044;28;20230;-60
2023/08/09 07:15:32;;;;;;;4.70;3.10;;;24.30;90.50;;;;;;5039179;28;20214;-59
2023/08/09 07:18:00;;;;;;;5.90;3.30;;;24.50;90.40;;;;;;5037296;28;20282;-59
2023/08/09 07:20:27;;;;;;;5.80;2.73;;;24.60;90.20;;;;;;5038829;28;20559;-59
2023/08/09 07:22:54;;;;;;;5.63;2.93;;;24.80;90.10;;;;;;5039938;28;20356;-59
2023/08/09 07:25:22;;;;;;;4.77;3.07;;;25.00;89.60;;;;;;5043807;28;20681;-58
2023/08/09 07:27:50;;;;;;;6.97;3.40;;;25.10;87.80;;;;;;5037314;28;20191;-61
2023/08/09 07:30:17;;;;;;;13.60;3.30;;;25.20;87.50;;;;;;5040987;28;20670;-59
2023/08/09 07:32:45;;;;;;;2.97;2.70;;;25.30;87.50;;;;;;5039138;28;20536;-60
2023/08/09 07:35:13;;;;;;;4.13;2.40;;;25.40;87.60;;;;;;5040507;28;20199;-60
2023/08/09 07:37:43;;;;;;;2.90;1.63;;;25.50;87.20;;;;;;5041324;28;20527;-60
2023/08/09 07:40:13;;;;;;;3.70;2.20;;;25.70;86.60;;;;;;5049926;28;20203;-59
2023/08/09 07:42:42;;;;;;;6.17;2.10;;;25.70;85.60;;;;;;5038383;28;20245;-59
2023/08/09 07:45:10;;;;;;;6.73;2.30;;;25.80;85.00;;;;;;5041454;28;20240;-59
2023/08/09 07:47:39;;;;;;;8.47;2.97;;;25.90;85.10;;;;;;5044744;28;20205;-61
2023/08/09 07:50:07;;;;;;;7.03;2.37;;;26.00;84.70;;;;;;5043756;28;20213;-60
2023/08/09 07:52:34;;;;;;;8.40;2.40;;;26.20;84.60;;;;;;5042649;28;20206;-60
2023/08/09 07:55:02;;;;;;;2.70;2.10;;;26.20;84.00;;;;;;5042096;28;20292;-59
2023/08/09 07:57:29;;;;;;;7.40;2.00;;;26.40;83.40;;;;;;5042584;28;20199;-59
2023/08/09 07:59:56;;;;;;;4.00;1.53;;;26.50;82.70;;;;;;5043273;28;20551;-62
2023/08/09 08:02:41;;;;;;;4.53;2.13;;;26.60;82.40;;;;;;5043671;28;20238;-63
2023/08/09 08:05:11;;;;;;;3.40;1.60;;;26.80;81.90;;;;;;5042812;28;20260;-60
2023/08/09 08:07:39;;;;;;;6.07;1.80;;;26.80;81.50;;;;;;5044360;28;20200;-61
2023/08/09 08:10:13;;;;;;;8.07;2.00;;;26.90;81.50;;;;;;5045817;28;20203;-60
2023/08/09 08:12:43;;;;;;;2.80;1.50;;;27.00;80.80;;;;;;5046014;28;20515;-59
2023/08/09 08:15:12;;;;;;;2.07;1.23;;;27.00;80.90;;;;;;5044512;28;20651;-60
2023/08/09 08:17:39;;;;;;;4.03;1.70;;;27.10;80.30;;;;;;5042981;28;20289;-61
2023/08/09 08:20:10;;;;;;;4.60;2.10;;;27.20;79.60;;;;;;5042819;28;20229;-61
2023/08/09 08:22:37;;;;;;;6.47;2.00;;;27.30;79.20;;;;;;5046029;28;20267;-61
2023/08/09 08:25:05;;;;;;;4.60;1.97;;;27.40;78.80;;;;;;5040370;28;20217;-61
2023/08/09 08:27:35;;;;;;;3.13;1.43;;;27.50;78.80;;;;;;5041231;28;20206;-59
2023/08/09 08:30:05;;;;;;;3.30;1.47;;;27.60;78.60;;;;;;5041845;28;20291;-60
2023/08/09 08:32:32;;;;;;;13.80;3.30;;;27.70;78.70;;;;;;5039371;28;20289;-61
2023/08/09 08:35:02;;;;;;;5.67;1.60;;;27.80;77.60;;;;;;5042084;28;20293;-61
2023/08/09 08:37:29;;;;;;;3.30;1.60;;;27.90;77.30;;;;;;5038093;28;20252;-60
2023/08/09 08:39:56;;;;;;;3.70;1.23;;;28.00;76.80;;;;;;5043310;28;20211;-60
2023/08/09 08:42:23;;;;;;;8.90;1.37;;;28.00;76.50;;;;;;5039077;28;20206;-60
2023/08/09 08:44:50;;;;;;;3.30;1.20;;;28.10;76.60;;;;;;5039747;28;20211;-60
2023/08/09 08:47:17;;;;;;;3.00;1.47;;;28.10;76.10;;;;;;5037164;28;20207;-62
2023/08/09 08:49:49;;;;;;;4.13;1.30;;;28.10;76.10;;;;;;5037843;28;20209;-61
2023/08/09 08:52:17;;;;;;;3.07;1.33;;;28.20;76.20;;;;;;5036211;28;20283;-60
2023/08/09 08:54:44;;;;;;;211.70;19.40;;;28.30;75.60;;;;;;5034512;28;20647;-59
2023/08/09 08:57:12;;;;;;;10.03;1.90;;;28.30;75.20;;;;;;5038589;28;20545;-61
2023/08/09 08:59:39;;;;;;;2.87;1.40;;;28.40;75.00;;;;;;5035417;28;20215;-60
2023/08/09 09:02:07;;;;;;;1.90;1.20;;;28.40;75.20;;;;;;5040008;28;20199;-60
2023/08/09 09:04:36;;;;;;;3.67;1.33;;;28.50;74.70;;;;;;5037327;28;20268;-60
2023/08/09 09:07:04;;;;;;;3.97;1.60;;;28.50;74.40;;;;;;5040804;28;20203;-61
2023/08/09 09:09:31;;;;;;;2.77;1.27;;;28.70;74.50;;;;;;5045676;28;20207;-60
2023/08/09 09:12:01;;;;;;;2.33;1.00;;;28.80;74.80;;;;;;5039991;28;20206;-61
2023/08/09 09:14:29;;;;;;;4.07;1.37;;;28.90;74.40;;;;;;5041515;28;20213;-60
2023/08/09 09:16:57;;;;;;;2.60;1.33;;;29.10;73.90;;;;;;5043292;28;20264;-62
2023/08/09 09:19:24;;;;;;;3.10;1.50;;;29.10;73.00;;;;;;5040743;28;20631;-60
2023/08/09 09:21:51;;;;;;;3.60;1.50;;;29.30;72.80;;;;;;5043214;28;20218;-61
2023/08/09 09:24:20;;;;;;;5.40;1.40;;;29.40;72.30;;;;;;5046061;28;20515;-59
2023/08/09 09:26:54;;;;;;;3.43;1.23;;;29.50;72.70;;;;;;5041037;28;20620;-62
2023/08/09 09:29:30;;;;;;;2.73;1.30;;;29.60;71.50;;;;;;5039788;28;20218;-61
2023/08/09 09:31:59;;;;;;;4.50;1.00;;;29.60;71.20;;;;;;5044397;28;20710;-61
2023/08/09 09:34:30;;;;;;;2.47;1.10;;;29.70;71.10;;;;;;5041555;28;20195;-61
2023/08/09 09:36:57;;;;;;;1.67;0.93;;;29.80;71.10;;;;;;5039949;28;20272;-61
2023/08/09 09:39:28;;;;;;;4.73;1.30;;;29.90;70.30;;;;;;5043045;28;20202;-60
2023/08/09 09:41:55;;;;;;;3.73;1.40;;;30.00;69.30;;;;;;5041712;28;20199;-61
2023/08/09 09:44:24;;;;;;;0.80;0.80;;;30.10;69.00;;;;;;5040552;28;20211;-60
2023/08/09 09:46:58;;;;;;;1.63;0.90;;;30.10;69.00;;;;;;5040540;28;20620;-60
2023/08/09 09:49:26;;;;;;;4.13;1.47;;;30.30;69.10;;;;;;5041197;28;20206;-61
2023/08/09 09:51:56;;;;;;;1.77;1.07;;;30.30;68.50;;;;;;5043559;28;20287;-61
2023/08/09 09:54:23;;;;;;;1.33;1.03;;;30.30;67.00;;;;;;5040624;28;20299;-61
2023/08/09 09:56:50;;;;;;;2.27;1.00;;;30.20;67.00;;;;;;5039650;28;20194;-61
2023/08/09 09:59:17;;;;;;;7.67;1.20;;;30.00;65.70;;;;;;5041544;28;20209;-60
2023/08/09 10:01:47;;;;;;;9.93;1.40;;;29.90;66.90;;;;;;5039459;28;20244;-60
2023/08/09 10:04:16;;;;;;;10.90;1.60;;;29.70;67.40;;;;;;5039293;28;20237;-61
2023/08/09 10:06:46;;;;;;;6.73;1.37;;;29.70;67.90;;;;;;5042384;28;20207;-61
2023/08/09 10:09:13;;;;;;;4.13;0.73;;;29.70;67.80;;;;;;5041167;28;20198;-61
2023/08/09 10:11:43;;;;;;;4.13;1.10;;;29.80;67.10;;;;;;5039390;28;20280;-61
2023/08/09 10:14:12;;;;;;;7.23;1.00;;;29.80;66.20;;;;;;5046040;28;20194;-59
2023/08/09 10:16:40;;;;;;;4.90;1.30;;;30.00;65.70;;;;;;5036240;28;20242;-62
2023/08/09 10:19:11;;;;;;;13.27;1.57;;;30.10;64.20;;;;;;5036173;28;20280;-59
2023/08/09 10:21:40;;;;;;;18.13;2.43;;;30.10;63.10;;;;;;5045085;28;20341;-59
2023/08/09 10:24:12;;;;;;;9.63;1.90;;;30.00;63.50;;;;;;5035095;28;20214;-60
2023/08/09 10:26:44;;;;;;;2.87;1.13;;;29.80;64.40;;;;;;5037205;28;20214;-60
2023/08/09 10:29:13;;;;;;;4.37;1.00;;;29.70;64.60;;;;;;5037972;28;20195;-61
2023/08/09 10:31:53;;;;;;;2.03;0.90;;;29.60;64.00;;;;;;5038542;28;20209;-61
2023/08/09 10:34:33;;;;;;;7.13;1.80;;;29.50;63.80;;;;;;5049113;28;20198;-60
2023/08/09 10:37:01;;;;;;;65.00;7.47;;;29.60;64.60;;;;;;5045804;28;20214;-60
2023/08/09 10:39:30;;;;;;;72.80;9.40;;;29.90;64.40;;;;;;5046121;28;20210;-60
2023/08/09 10:41:58;;;;;;;2.03;1.10;;;30.00;62.90;;;;;;5042583;28;20214;-60
2023/08/09 10:44:37;;;;;;;2.37;1.20;;;29.90;60.90;;;;;;5049032;28;20229;-62
2023/08/09 10:47:18;;;;;;;1.63;0.80;;;29.90;60.00;;;;;;5042664;28;20554;-61
2023/08/09 10:49:48;;;;;;;1.33;1.00;;;29.80;60.60;;;;;;5045372;28;20203;-61
2023/08/09 10:52:18;;;;;;;2.77;1.00;;;29.80;60.60;;;;;;5048289;28;20199;-61
2023/08/09 10:55:04;;;;;;;1.97;0.90;;;29.90;60.50;;;;;;5042643;28;20288;-59
2023/08/09 10:57:47;;;;;;;1.73;1.10;;;29.90;60.30;;;;;;5045684;28;20203;-61
2023/08/09 11:00:15;;;;;;;2.17;1.27;;;30.00;59.60;;;;;;5045352;28;20211;-61
2023/08/09 11:02:53;;;;;;;1.77;1.03;;;30.10;60.00;;;;;;5043407;28;20211;-62
2023/08/09 11:05:21;;;;;;;3.50;1.07;;;30.20;59.70;;;;;;5041802;28;20226;-61
2023/08/09 11:07:51;;;;;;;2.57;0.97;;;30.20;59.40;;;;;;5045924;28;20202;-61
2023/08/09 11:10:32;;;;;;;1.73;0.87;;;30.30;60.70;;;;;;5044050;28;20206;-61
2023/08/09 11:13:07;;;;;;;1.47;1.00;;;30.30;61.80;;;;;;5044376;28;20647;-61
2023/08/09 11:15:34;;;;;;;1.83;1.00;;;30.30;61.70;;;;;;5044763;28;20195;-61
2023/08/09 11:18:02;;;;;;;2.83;0.80;;;30.40;62.00;;;;;;5044721;28;20202;-61
2023/08/09 11:20:29;;;;;;;2.27;1.00;;;30.50;62.00;;;;;;5046150;28;20703;-61
2023/08/09 11:22:58;;;;;;;2.60;1.00;;;30.60;62.30;;;;;;5041911;28;20231;-62
2023/08/09 11:25:28;;;;;;;1.67;0.90;;;30.70;61.70;;;;;;5044382;28;20276;-62
2023/08/09 11:27:57;;;;;;;2.50;0.90;;;30.80;60.70;;;;;;5044259;28;20209;-61
2023/08/09 11:30:25;;;;;;;2.00;0.90;;;30.80;59.70;;;;;;5042621;28;20214;-61
2023/08/09 11:33:00;;;;;;;3.30;0.90;;;30.90;58.80;;;;;;5043932;28;20191;-61
2023/08/09 11:35:45;;;;;;;1.00;0.90;;;30.90;58.10;;;;;;5046982;28;20218;-62
2023/08/09 11:38:15;;;;;;;2.60;0.90;;;31.00;57.70;;;;;;5042976;28;20297;-61
2023/08/09 11:40:50;;;;;;;2.03;1.00;;;30.90;57.20;;;;;;5042823;28;20272;-61
2023/08/09 11:43:20;;;;;;;5.73;1.10;;;30.90;56.90;;;;;;5042845;28;20212;-61
2023/08/09 11:45:53;;;;;;;3.23;0.97;;;30.80;57.00;;;;;;5039325;28;20218;-61
2023/08/09 11:48:34;;;;;;;1.67;0.70;;;30.90;57.90;;;;;;5040899;28;20199;-61
2023/08/09 11:51:16;;;;;;;2.13;1.10;;;31.00;57.60;;;;;;5043371;28;20190;-61
2023/08/09 11:53:44;;;;;;;2.03;1.07;;;31.20;57.30;;;;;;5039166;28;20207;-62
2023/08/09 11:56:18;;;;;;;1.33;1.03;;;31.30;56.40;;;;;;5041071;28;20198;-61
2023/08/09 11:58:48;;;;;;;3.60;1.37;;;31.40;56.20;;;;;;5042653;28;20227;-62
2023/08/09 12:01:22;;;;;;;3.23;1.00;;;31.50;54.00;;;;;;5041972;28;20203;-61
2023/08/09 12:03:52;;;;;;;2.13;1.00;;;31.50;54.40;;;;;;5046318;28;20235;-61
2023/08/09 12:06:36;;;;;;;3.03;0.90;;;31.60;54.20;;;;;;5039891;28;20277;-61
2023/08/09 12:09:31;;;;;;;3.43;1.17;;;31.80;54.20;;;;;;5041725;28;20207;-62
2023/08/09 12:12:09;;;;;;;0.60;0.60;;;31.90;54.10;;;;;;5040585;28;20199;-62
2023/08/09 12:14:41;;;;;;;1.57;0.87;;;32.00;53.80;;;;;;5039058;28;20293;-62
2023/08/09 12:17:17;;;;;;;1.90;0.90;;;32.00;52.70;;;;;;5040962;28;20644;-62
2023/08/09 12:19:48;;;;;;;1.37;0.90;;;32.00;52.40;;;;;;5039925;28;20206;-61
2023/08/09 12:22:16;;;;;;;2.50;0.90;;;32.00;52.30;;;;;;5045245;28;20195;-61
2023/08/09 12:24:43;;;;;;;2.63;0.70;;;31.90;52.00;;;;;;5039481;28;20203;-62
2023/08/09 12:27:10;;;;;;;3.33;1.07;;;31.90;52.50;;;;;;5045062;28;20302;-61
2023/08/09 12:29:37;;;;;;;2.77;0.80;;;31.90;51.10;;;;;;5041540;28;20577;-62
2023/08/09 12:32:05;;;;;;;1.23;0.80;;;31.90;51.40;;;;;;5042663;28;20210;-62
2023/08/09 12:34:33;;;;;;;1.30;0.90;;;31.80;51.20;;;;;;5042715;28;20191;-61
2023/08/09 12:37:00;;;;;;;2.03;1.00;;;31.80;51.40;;;;;;5041433;28;20199;-61
2023/08/09 12:39:27;;;;;;;1.87;0.90;;;31.80;50.00;;;;;;5042225;28;20550;-62
2023/08/09 12:41:55;;;;;;;1.47;0.80;;;31.70;50.60;;;;;;5042716;28;20214;-62
2023/08/09 12:44:24;;;;;;;2.00;1.20;;;31.80;50.90;;;;;;5042865;28;20199;-61
2023/08/09 12:46:51;;;;;;;2.50;0.80;;;31.80;50.70;;;;;;5040322;28;20218;-61
2023/08/09 12:49:18;;;;;;;1.17;0.80;;;31.80;50.90;;;;;;5040498;28;20512;-62
2023/08/09 12:51:45;;;;;;;1.20;0.80;;;31.90;51.20;;;;;;5042019;28;20218;-62
2023/08/09 12:54:12;;;;;;;3.47;1.20;;;31.90;51.50;;;;;;5041297;28;20191;-62
2023/08/09 12:56:39;;;;;;;4.40;1.10;;;32.00;50.90;;;;;;5044559;28;20210;-61
2023/08/09 12:59:06;;;;;;;0.77;0.77;;;32.00;50.30;;;;;;5040246;28;20199;-62
2023/08/09 13:01:35;;;;;;;1.10;0.80;;;32.00;50.50;;;;;;5044607;28;20199;-62
2023/08/09 13:04:03;;;;;;;2.63;0.97;;;32.10;50.00;;;;;;5043303;28;20249;-61
2023/08/09 13:06:30;;;;;;;1.13;0.73;;;32.10;50.10;;;;;;5037504;28;20306;-62